Time;durP1;ratioP1;P1;durP2;ratioP2;P2;SDS_P1;SDS_P2;PMS_P1;PMS_P2;Temp;Humidity;BMP_temperature;BMP_pressure;BME280_temperature;BME280_humidity;BME280_pressure;Samples;Min_cycle;Max_cycle;Signal;HPM_P1;HPM_P2
2021/05/20 05:01:00;;;;;;;5.95;3.83;;;;;;;13.63;92.10;93978.59;6170870;22;20062;-73
2021/05/20 05:03:26;;;;;;;4.35;3.80;;;;;;;13.96;91.62;93966.09;6214201;23;20008;-72
2021/05/20 05:05:53;;;;;;;5.18;3.85;;;;;;;14.83;88.27;93959.69;6158175;23;20023;-69
2021/05/20 05:08:19;;;;;;;3.95;2.53;;;;;;;19.91;69.15;93950.19;6181924;23;20015;-73
2021/05/20 05:10:46;;;;;;;4.65;2.47;;;;;;;17.01;75.48;93958.31;6209219;23;20009;-70
2021/05/20 05:13:11;;;;;;;4.40;2.58;;;;;;;14.91;85.72;93961.97;6208840;23;20000;-72
2021/05/20 05:15:37;;;;;;;3.17;2.40;;;;;;;15.39;83.89;93958.47;6159967;23;20001;-73
2021/05/20 05:18:03;;;;;;;5.65;4.80;;;;;;;14.93;84.79;93954.72;6183642;23;20005;-73
2021/05/20 05:20:28;;;;;;;14.20;12.30;;;;;;;14.67;85.52;93957.69;6184414;23;20736;-72
2021/05/20 05:22:54;;;;;;;14.45;12.57;;;;;;;14.80;85.99;93954.94;6159930;23;20015;-73
2021/05/20 05:25:19;;;;;;;7.55;6.03;;;;;;;15.47;83.72;93958.16;6158474;23;19997;-72
2021/05/20 05:27:45;;;;;;;6.30;3.65;;;;;;;14.59;86.59;93968.41;6211726;23;20000;-72
2021/05/20 05:30:11;;;;;;;3.97;3.35;;;;;;;13.61;89.61;93967.63;6209292;23;20000;-72
2021/05/20 05:32:36;;;;;;;4.38;3.35;;;;;;;13.58;90.07;93965.44;6211814;23;20519;-72
2021/05/20 05:35:02;;;;;;;5.13;4.63;;;;;;;13.58;89.52;93963.63;6182985;23;20425;-72
2021/05/20 05:37:27;;;;;;;3.38;2.95;;;;;;;13.58;88.75;93958.41;6160059;23;20008;-72
2021/05/20 05:39:53;;;;;;;10.93;9.93;;;;;;;13.35;89.97;93960.03;6210887;23;20067;-73
2021/05/20 05:42:18;;;;;;;3.65;2.60;;;;;;;13.24;89.33;93961.50;6210494;23;20000;-72
2021/05/20 05:44:44;;;;;;;4.20;3.90;;;;;;;13.22;89.69;93965.31;6184655;23;20004;-75
2021/05/20 05:47:09;;;;;;;8.13;2.60;;;;;;;13.10;90.44;93960.78;6183079;23;20004;-73
2021/05/20 05:49:44;;;;;;;5.10;4.72;;;;;;;13.18;90.16;93964.94;6211160;23;20005;-74
2021/05/20 05:52:16;;;;;;;3.92;3.63;;;;;;;13.13;90.11;93967.41;6209450;23;20004;-74
2021/05/20 05:54:42;;;;;;;8.55;7.20;;;;;;;13.00;90.45;93970.81;6186295;23;20028;-73
2021/05/20 05:57:07;;;;;;;8.88;6.35;;;;;;;12.88;90.94;93971.69;6159336;23;20001;-74
2021/05/20 05:59:33;;;;;;;8.20;7.40;;;;;;;12.87;90.38;93973.53;6183326;23;20012;-73
2021/05/20 06:01:58;;;;;;;7.18;6.78;;;;;;;12.77;91.69;93967.19;6210626;23;20013;-74
2021/05/20 06:04:24;;;;;;;2.75;2.50;;;;;;;13.08;90.52;93962.00;6158070;23;20128;-74
2021/05/20 06:06:49;;;;;;;2.72;2.42;;;;;;;13.09;90.48;93964.41;6184842;23;20005;-75
2021/05/20 06:09:14;;;;;;;44.83;32.15;;;;;;;13.25;89.88;93962.31;6209117;23;20354;-74
2021/05/20 06:11:40;;;;;;;5.18;4.22;;;;;;;13.39;89.05;93971.63;6185022;23;20005;-74
2021/05/20 06:14:07;;;;;;;9.52;3.85;;;;;;;13.01;90.41;93985.41;6209182;23;20039;-74
2021/05/20 06:16:36;;;;;;;9.75;5.93;;;;;;;13.01;91.11;93990.63;6210924;23;20012;-74
2021/05/20 06:19:02;;;;;;;9.57;8.50;;;;;;;13.42;90.21;94005.00;6184276;23;20004;-73
2021/05/20 06:21:28;;;;;;;2.53;2.33;;;;;;;13.02;90.53;94005.22;6158825;23;20338;-73
2021/05/20 06:23:53;;;;;;;2.78;2.58;;;;;;;12.67;91.27;94014.41;6184241;23;20016;-74
2021/05/20 06:26:18;;;;;;;4.13;3.20;;;;;;;12.82;91.54;94029.69;6182490;23;19997;-75
2021/05/20 06:28:44;;;;;;;6.90;5.97;;;;;;;12.50;91.96;94027.03;6183933;23;20349;-75
2021/05/20 06:31:09;;;;;;;3.78;3.28;;;;;;;12.57;90.95;94032.22;6209013;23;20401;-75
2021/05/20 06:33:35;;;;;;;32.80;2.95;;;;;;;12.08;91.23;94020.56;6210874;23;20008;-74
2021/05/20 06:36:00;;;;;;;2.25;0.98;;;;;;;11.85;91.36;94025.38;6183775;23;20007;-73
2021/05/20 06:38:26;;;;;;;12.80;1.67;;;;;;;11.83;91.88;94040.38;6158196;23;20464;-73
2021/05/20 06:40:51;;;;;;;1.38;0.80;;;;;;;11.69;92.41;94046.50;6211327;23;20034;-72
2021/05/20 06:43:17;;;;;;;3.70;0.60;;;;;;;11.58;91.57;94040.16;6182230;23;20434;-72
2021/05/20 06:45:42;;;;;;;1.15;0.50;;;;;;;12.05;91.05;94052.13;6184105;23;20051;-74
2021/05/20 06:48:08;;;;;;;2.33;0.70;;;;;;;12.29;90.46;94070.66;6209105;23;20464;-74
2021/05/20 06:50:33;;;;;;;10.38;1.27;;;;;;;12.06;89.91;94074.47;6210735;23;20015;-73
2021/05/20 06:52:59;;;;;;;24.40;1.25;;;;;;;11.95;89.29;94066.50;6209585;23;20025;-72
2021/05/20 06:55:24;;;;;;;1.58;0.90;;;;;;;11.91;88.45;94066.09;6209834;23;20015;-72
2021/05/20 07:00:34;;;;;;;2.00;0.50;;;;;;;11.52;88.82;94073.84;6165078;23;20074;-72
2021/05/20 07:03:00;;;;;;;0.65;0.65;;;;;;;11.75;89.60;94082.06;6182726;23;20008;-73
2021/05/20 07:05:26;;;;;;;1.08;0.65;;;;;;;12.11;89.14;94069.47;6156364;23;20374;-75
2021/05/20 07:07:51;;;;;;;0.82;0.52;;;;;;;11.77;90.03;94069.69;6157727;23;20076;-74
2021/05/20 07:10:17;;;;;;;5.35;1.23;;;;;;;12.02;88.97;94075.06;6156692;23;20011;-74
2021/05/20 07:12:42;;;;;;;1.30;1.15;;;;;;;12.39;88.27;94090.00;6157226;23;20004;-73
2021/05/20 07:15:09;;;;;;;56.92;3.70;;;;;;;12.36;88.14;94090.38;6157185;23;20001;-73
2021/05/20 07:17:34;;;;;;;0.68;0.68;;;;;;;13.90;83.74;94078.09;6156091;23;20004;-75
2021/05/20 07:19:59;;;;;;;1.58;0.45;;;;;;;13.69;82.45;94074.03;6209057;23;20007;-74
2021/05/20 07:22:25;;;;;;;1.38;0.55;;;;;;;13.44;83.79;94075.81;6207425;23;20004;-72
2021/05/20 07:24:50;;;;;;;5.18;0.60;;;;;;;13.01;82.93;94071.19;6182181;23;20005;-74
2021/05/20 07:27:16;;;;;;;5.55;0.75;;;;;;;12.82;83.93;94064.28;6207881;23;20050;-73
2021/05/20 07:29:41;;;;;;;1.55;1.45;;;;;;;13.25;82.79;94056.72;6181879;23;20001;-73
2021/05/20 07:32:17;;;;;;;6.07;5.53;;;;;;;13.60;80.45;94059.69;6181404;23;20004;-74
2021/05/20 07:34:43;;;;;;;7.65;4.80;;;;;;;13.77;80.98;94067.78;6183416;23;20001;-75
2021/05/20 07:37:10;;;;;;;2.17;1.88;;;;;;;13.55;80.18;94068.13;6182135;23;20016;-73
2021/05/20 07:39:35;;;;;;;2.08;1.60;;;;;;;13.82;81.77;94063.53;6180499;23;20004;-75
2021/05/20 07:42:01;;;;;;;3.45;2.22;;;;;;;14.25;77.69;94053.16;6182127;23;20039;-74
2021/05/20 07:44:26;;;;;;;4.13;1.50;;;;;;;13.46;81.29;94063.38;6207257;23;20426;-73
2021/05/20 07:46:54;;;;;;;49.92;32.55;;;;;;;13.74;79.17;94061.19;6182107;23;20011;-75
2021/05/20 07:49:19;;;;;;;4.10;3.15;;;;;;;13.98;78.91;94057.78;6156143;23;20061;-74
2021/05/20 07:51:44;;;;;;;0.90;0.85;;;;;;;15.13;74.71;94059.56;6208044;23;20111;-73
2021/05/20 07:54:10;;;;;;;2.17;2.05;;;;;;;17.10;69.19;94048.50;6208575;23;20007;-74
2021/05/20 07:56:35;;;;;;;2.22;2.03;;;;;;;17.22;71.08;94062.31;6207307;23;20084;-75
2021/05/20 07:59:01;;;;;;;2.10;1.90;;;;;;;17.18;68.51;94066.44;6157010;23;20001;-76
2021/05/20 08:01:28;;;;;;;2.22;1.38;;;;;;;16.47;69.91;94045.09;6207130;23;20012;-75
2021/05/20 08:04:00;;;;;;;0.65;0.65;;;;;;;16.90;72.01;94063.78;6180792;23;20075;-75
2021/05/20 08:06:38;;;;;;;1.80;0.70;;;;;;;16.97;69.97;94067.06;6181568;23;20005;-73
2021/05/20 08:09:17;;;;;;;3.42;1.65;;;;;;;17.26;70.50;94079.16;6206242;23;20015;-75
2021/05/20 08:11:43;;;;;;;1.70;1.50;;;;;;;16.99;68.37;94087.75;6180849;23;20013;-73
2021/05/20 08:14:08;;;;;;;2.05;1.95;;;;;;;17.61;65.55;94099.19;6206075;23;20370;-75
2021/05/20 08:16:34;;;;;;;0.30;0.30;;;;;;;17.65;65.93;94100.31;6180780;23;20011;-74
2021/05/20 08:18:59;;;;;;;0.70;0.50;;;;;;;17.68;68.80;94105.09;6179397;23;20398;-75
2021/05/20 08:21:25;;;;;;;1.25;0.73;;;;;;;16.12;70.09;94108.56;6206960;23;20386;-73
2021/05/20 08:23:50;;;;;;;1.95;0.80;;;;;;;15.48;72.81;94117.16;6180303;23;20848;-74
2021/05/20 08:26:16;;;;;;;8.50;4.10;;;;;;;15.76;71.15;94106.13;6206617;23;20012;-76
2021/05/20 08:28:41;;;;;;;16.05;7.32;;;;;;;15.55;72.32;94124.88;6180402;23;20008;-75
2021/05/20 08:31:07;;;;;;;2.30;1.27;;;;;;;14.72;75.71;94145.50;6179301;23;20004;-76
2021/05/20 08:33:32;;;;;;;2.47;0.50;;;;;;;14.71;74.61;94149.91;6180824;23;20005;-75
2021/05/20 08:35:58;;;;;;;6.95;5.75;;;;;;;14.70;73.66;94148.31;6179666;23;20005;-76
2021/05/20 08:38:23;;;;;;;1.08;0.90;;;;;;;14.62;73.01;94148.59;6155784;23;19996;-74
2021/05/20 08:40:48;;;;;;;1.13;0.40;;;;;;;14.49;75.23;94142.72;6179627;23;20008;-75
2021/05/20 08:43:14;;;;;;;9.90;8.32;;;;;;;15.20;72.56;94143.78;6180154;23;20421;-74
2021/05/20 08:45:40;;;;;;;14.05;5.40;;;;;;;15.12;70.91;94146.66;6206851;23;20000;-74
2021/05/20 08:48:05;;;;;;;10.68;9.98;;;;;;;15.72;69.25;94146.75;6177695;23;20012;-75
2021/05/20 08:50:31;;;;;;;1.55;1.33;;;;;;;15.74;69.31;94140.28;6156680;23;20028;-76
2021/05/20 08:52:57;;;;;;;1.92;0.80;;;;;;;15.78;66.70;94140.63;6155807;23;20062;-75
2021/05/20 08:55:30;;;;;;;0.30;0.20;;;;;;;15.44;68.56;94143.88;6132638;23;20007;-76
2021/05/20 08:57:56;;;;;;;1.67;0.55;;;;;;;16.21;67.68;94150.88;6157196;23;20058;-80
2021/05/20 09:00:23;;;;;;;2.08;0.60;;;;;;;16.12;65.56;94144.34;6181896;23;20363;-76
2021/05/20 09:02:51;;;;;;;0.68;0.40;;;;;;;15.67;66.13;94151.81;6176718;23;20099;-75
2021/05/20 09:05:21;;;;;;;2.95;0.80;;;;;;;15.87;64.62;94148.94;6151415;23;20055;-75
2021/05/20 09:07:56;;;;;;;0.88;0.40;;;;;;;15.96;64.94;94150.25;6152773;23;20084;-75
2021/05/20 09:10:21;;;;;;;0.70;0.57;;;;;;;16.04;65.06;94160.34;6176290;23;20406;-76
2021/05/20 09:12:56;;;;;;;0.40;0.40;;;;;;;16.09;64.41;94152.63;6178498;23;20001;-75
2021/05/20 09:15:22;;;;;;;0.60;0.57;;;;;;;16.67;62.29;94156.16;6176526;23;20032;-74
2021/05/20 09:17:48;;;;;;;0.75;0.40;;;;;;;16.61;62.88;94151.03;6178180;23;20009;-76
2021/05/20 09:20:13;;;;;;;1.58;0.75;;;;;;;18.33;62.04;94145.50;6152290;23;20527;-75
2021/05/20 09:22:39;;;;;;;0.80;0.68;;;;;;;18.75;56.42;94121.50;6175798;23;20443;-74
2021/05/20 09:25:05;;;;;;;1.30;1.10;;;;;;;19.01;57.44;94144.41;6177515;23;20009;-75
2021/05/20 09:27:45;;;;;;;4.43;4.03;;;;;;;18.14;59.06;94145.97;6176116;23;20009;-76
2021/05/20 09:30:18;;;;;;;0.45;0.45;;;;;;;17.90;59.10;94145.28;6152746;23;20005;-75
2021/05/20 09:32:55;;;;;;;1.85;0.35;;;;;;;18.85;57.83;94137.38;6176292;23;20354;-75
2021/05/20 09:35:31;;;;;;;0.88;0.30;;;;;;;18.06;58.50;94143.72;6174878;23;20009;-74
2021/05/20 09:37:57;;;;;;;3.00;0.40;;;;;;;17.62;59.85;94140.06;6175273;23;20028;-76
2021/05/20 09:40:25;;;;;;;1.15;0.30;;;;;;;17.78;60.32;94150.59;6176073;23;20435;-77
2021/05/20 09:42:50;;;;;;;1.20;0.38;;;;;;;18.56;58.85;94146.41;6151137;23;20690;-75
2021/05/20 09:45:19;;;;;;;2.25;0.40;;;;;;;18.16;59.27;94155.19;6174985;23;20012;-75
2021/05/20 09:47:45;;;;;;;24.20;2.05;;;;;;;18.90;57.84;94147.97;6175735;23;20005;-77
2021/05/20 09:50:21;;;;;;;1.23;0.63;;;;;;;18.22;59.86;94143.75;6150553;23;20059;-72
2021/05/20 09:52:49;;;;;;;1.73;0.43;;;;;;;18.57;59.45;94148.78;6173541;23;20009;-73
2021/05/20 09:55:25;;;;;;;0.95;0.68;;;;;;;19.38;58.31;94140.19;6175489;23;20359;-73
2021/05/20 09:57:52;;;;;;;1.35;0.40;;;;;;;20.07;57.42;94108.84;6176634;23;20009;-73
2021/05/20 10:00:22;;;;;;;1.13;0.45;;;;;;;19.43;57.86;94139.47;6174895;23;20008;-73
2021/05/20 10:02:55;;;;;;;1.88;0.95;;;;;;;19.15;57.43;94137.78;6150037;23;20016;-74
2021/05/20 10:05:53;;;;;;;0.75;0.73;;;;;;;18.85;55.34;94134.75;6175159;23;20013;-71
2021/05/20 10:08:22;;;;;;;0.90;0.50;;;;;;;20.27;55.76;94130.09;6136482;23;20431;-73
2021/05/20 10:10:49;;;;;;;0.50;0.30;;;;;;;19.57;54.39;94127.56;6176211;23;20008;-73
2021/05/20 10:13:17;;;;;;;0.40;0.28;;;;;;;19.64;55.48;94114.22;6176034;23;20409;-72
2021/05/20 10:15:42;;;;;;;0.65;0.30;;;;;;;18.81;57.63;94131.03;6149781;23;20072;-73
2021/05/20 10:18:12;;;;;;;0.50;0.50;;;;;;;18.29;56.06;94125.25;6175451;23;20005;-73
2021/05/20 10:20:38;;;;;;;0.82;0.50;;;;;;;18.42;57.33;94130.16;6177181;23;20005;-72
2021/05/20 10:23:12;;;;;;;0.60;0.60;;;;;;;18.35;57.23;94127.72;6150370;23;20008;-73
2021/05/20 10:25:38;;;;;;;0.85;0.73;;;;;;;18.18;55.39;94131.34;6151344;23;20055;-73
2021/05/20 10:28:08;;;;;;;1.58;0.50;;;;;;;17.96;57.95;94139.09;6174378;23;20005;-73
2021/05/20 10:30:33;;;;;;;;;;;;;;;17.39;57.07;94128.63;6176533;23;20075;-74
2021/05/20 10:32:59;;;;;;;2.25;1.10;;;;;;;17.66;57.67;94133.34;6174903;23;20354;-73
2021/05/20 10:35:43;;;;;;;1.90;0.80;;;;;;;18.04;58.01;94140.56;6164858;23;20001;-72
2021/05/20 10:38:09;;;;;;;0.57;0.50;;;;;;;19.64;52.24;94115.03;6177515;23;20005;-74
2021/05/20 10:40:34;;;;;;;0.50;0.50;;;;;;;18.51;51.02;94126.13;6174818;23;20438;-73
2021/05/20 10:43:07;;;;;;;30.15;27.08;;;;;;;18.51;53.55;94125.34;6176314;23;20001;-72
2021/05/20 10:45:34;;;;;;;1.92;1.83;;;;;;;19.18;55.40;94124.16;6174905;23;20386;-72
2021/05/20 10:48:20;;;;;;;0.85;0.82;;;;;;;19.17;53.85;94113.94;6151444;23;20005;-74
2021/05/20 10:50:55;;;;;;;2.42;0.70;;;;;;;19.52;54.20;94110.94;6174235;23;20091;-73
2021/05/20 10:53:40;;;;;;;2.72;0.88;;;;;;;19.57;54.59;94111.78;6176598;23;20005;-73
2021/05/20 10:56:06;;;;;;;2.65;1.63;;;;;;;19.23;54.09;94111.09;6175392;23;20001;-71
2021/05/20 10:58:35;;;;;;;1.70;1.23;;;;;;;19.37;53.85;94114.16;6175482;23;20060;-72
2021/05/20 11:01:00;;;;;;;1.77;0.90;;;;;;;19.14;55.88;94104.69;6151097;23;20096;-73
2021/05/20 11:03:53;;;;;;;0.85;0.70;;;;;;;19.73;53.29;94097.78;6175148;23;20087;-73
2021/05/20 11:06:58;;;;;;;1.63;0.93;;;;;;;19.32;53.23;94090.47;6170948;23;20066;-72
2021/05/20 11:09:27;;;;;;;1.40;1.30;;;;;;;18.58;55.59;94095.31;6057603;23;20010;-72
2021/05/20 11:11:53;;;;;;;1.33;1.20;;;;;;;18.99;58.02;94101.88;6133568;23;20093;-73
2021/05/20 11:14:18;;;;;;;2.63;0.98;;;;;;;19.05;55.46;94093.03;6175359;23;20462;-71
2021/05/20 11:16:44;;;;;;;1.75;1.27;;;;;;;20.14;54.41;94090.22;6177152;23;20009;-72
2021/05/20 11:19:16;;;;;;;1.58;1.17;;;;;;;20.31;54.21;94090.94;6174597;23;20343;-71
2021/05/20 11:22:07;;;;;;;1.88;1.20;;;;;;;20.56;50.99;94090.31;6177656;23;20083;-73
2021/05/20 11:24:33;;;;;;;1.33;1.15;;;;;;;20.28;50.31;94091.44;6176587;23;20009;-73
2021/05/20 11:27:03;;;;;;;2.97;2.40;;;;;;;20.24;53.10;94092.94;6177801;23;20001;-72
2021/05/20 11:29:30;;;;;;;1.63;1.50;;;;;;;19.45;50.30;94090.13;6174605;23;20016;-73
2021/05/20 11:32:12;;;;;;;2.28;1.40;;;;;;;18.85;53.28;94082.25;6174170;23;20009;-73
2021/05/20 11:35:00;;;;;;;2.38;1.20;;;;;;;19.07;53.02;94077.06;6154359;23;20001;-75
2021/05/20 11:37:42;;;;;;;4.43;4.03;;;;;;;19.29;52.05;94086.50;6152885;23;20005;-71
2021/05/20 11:40:23;;;;;;;5.75;5.25;;;;;;;19.56;50.86;94089.16;6152599;23;20001;-74
2021/05/20 11:42:49;;;;;;;7.72;7.13;;;;;;;19.39;52.59;94081.34;6154135;23;20005;-75
2021/05/20 11:45:22;;;;;;;3.60;2.65;;;;;;;19.13;53.04;94087.38;6149655;23;20009;-74
2021/05/20 11:47:55;;;;;;;4.38;4.05;;;;;;;19.32;51.52;94082.59;6151858;23;20001;-74
2021/05/20 11:50:23;;;;;;;3.65;3.35;;;;;;;19.23;54.21;94087.47;6148939;23;20091;-72
2021/05/20 11:52:48;;;;;;;3.40;2.65;;;;;;;19.65;51.04;94074.53;6175745;23;20001;-74
2021/05/20 11:55:14;;;;;;;4.20;3.88;;;;;;;19.50;54.61;94076.22;6174786;23;20043;-74
2021/05/20 11:58:01;;;;;;;2.75;2.20;;;;;;;19.71;53.32;94075.41;6176923;23;20001;-74
2021/05/20 12:00:27;;;;;;;5.18;4.43;;;;;;;19.86;51.37;94078.97;6175035;23;20005;-73
2021/05/20 12:02:56;;;;;;;1.92;1.83;;;;;;;19.42;50.66;94070.38;6173050;23;20075;-74
2021/05/20 12:05:24;;;;;;;2.53;1.70;;;;;;;19.32;51.71;94051.06;6176227;23;20005;-74
2021/05/20 12:07:50;;;;;;;1.83;1.70;;;;;;;18.94;50.48;94044.09;6174483;23;20009;-74
2021/05/20 12:10:16;;;;;;;3.17;1.33;;;;;;;19.41;53.32;94063.56;6149180;23;20072;-74
2021/05/20 12:12:47;;;;;;;1.20;1.15;;;;;;;19.08;51.87;94063.66;6173472;23;20005;-73
2021/05/20 12:15:14;;;;;;;1.30;1.20;;;;;;;18.97;52.40;94064.59;6173987;23;20391;-77
2021/05/20 12:17:39;;;;;;;1.30;1.20;;;;;;;19.01;53.63;94054.41;6175347;23;20055;-77
2021/05/20 12:20:06;;;;;;;1.40;1.20;;;;;;;19.57;51.25;94059.25;6173678;23;20013;-77
2021/05/20 12:22:32;;;;;;;2.67;1.60;;;;;;;19.27;49.67;94051.81;6175875;23;20012;-77
2021/05/20 12:25:03;;;;;;;1.02;1.02;;;;;;;19.42;51.02;94051.97;6174162;23;20005;-77
2021/05/20 12:27:35;;;;;;;3.38;1.27;;;;;;;19.27;52.65;94051.00;6175095;23;20435;-76
2021/05/20 12:30:00;;;;;;;1.52;1.10;;;;;;;19.14;50.15;94056.63;6176339;23;20012;-78
2021/05/20 12:32:27;;;;;;;1.58;1.13;;;;;;;19.29;51.12;94062.88;6175566;23;20009;-77
2021/05/20 12:35:28;;;;;;;2.88;0.90;;;;;;;18.95;48.21;94049.06;6176815;23;20036;-77
2021/05/20 12:38:17;;;;;;;1.52;0.77;;;;;;;19.51;50.82;94049.72;6176205;23;20045;-78
2021/05/20 12:41:00;;;;;;;2.30;0.80;;;;;;;19.54;48.33;94051.06;6175268;23;20005;-77
2021/05/20 12:43:37;;;;;;;2.30;1.00;;;;;;;19.26;49.18;94046.81;6176095;23;20027;-74
2021/05/20 12:46:06;;;;;;;2.15;0.60;;;;;;;19.00;49.02;94056.22;6175654;23;20008;-77
2021/05/20 12:48:36;;;;;;;1.08;0.70;;;;;;;19.29;49.71;94056.81;6175656;23;20048;-76
2021/05/20 12:51:14;;;;;;;0.80;0.80;;;;;;;19.65;50.11;94050.13;6175081;23;20044;-77
2021/05/20 12:53:43;;;;;;;1.73;0.90;;;;;;;19.12;51.34;94051.63;6175639;23;20005;-77
2021/05/20 12:56:24;;;;;;;0.95;0.70;;;;;;;18.48;50.48;94061.03;6175337;23;20001;-74
2021/05/20 12:58:51;;;;;;;1.15;1.02;;;;;;;18.80;50.61;94050.72;6175842;23;20002;-75
2021/05/20 13:01:16;;;;;;;1.63;0.90;;;;;;;19.17;49.19;94046.44;6175033;23;20021;-75
2021/05/20 13:03:47;;;;;;;0.80;0.80;;;;;;;19.04;49.15;94057.31;6148859;23;20005;-77
2021/05/20 13:06:28;;;;;;;3.10;0.82;;;;;;;18.40;54.33;94061.41;6175462;23;20080;-76
2021/05/20 13:08:55;;;;;;;1.30;0.90;;;;;;;18.31;50.95;94058.41;6174535;23;20041;-75
2021/05/20 13:11:27;;;;;;;19.08;11.05;;;;;;;19.13;49.78;94045.34;6174453;23;20439;-76
2021/05/20 13:13:53;;;;;;;4.65;2.20;;;;;;;19.35;50.67;94053.22;6173203;23;20016;-75
2021/05/20 13:16:34;;;;;;;1.63;1.27;;;;;;;19.04;51.91;94049.44;6172863;23;20016;-75
2021/05/20 13:24:44;;;;;;;1.67;1.00;;;;;;;19.10;50.83;94034.56;6174430;23;20394;-76
2021/05/20 13:27:11;;;;;;;2.08;1.83;;;;;;;18.52;52.12;94043.81;6176615;23;20001;-76
2021/05/20 13:29:37;;;;;;;3.45;3.15;;;;;;;18.15;51.79;94056.59;6123225;23;20009;-75
2021/05/20 14:35:58;;;;;;;1.77;0.80;;;;;;;17.59;54.94;94073.25;6204790;23;20056;-73
2021/05/20 14:38:24;;;;;;;0.80;0.80;;;;;;;17.33;55.11;94077.19;6180534;23;20693;-71
2021/05/20 14:40:49;;;;;;;1.83;0.75;;;;;;;17.47;55.47;94082.94;6181256;23;20075;-74
2021/05/20 14:43:15;;;;;;;2.55;0.88;;;;;;;17.12;57.21;94077.03;6181068;23;20005;-73
2021/05/20 14:45:41;;;;;;;1.60;1.10;;;;;;;17.26;57.96;94087.00;6156339;23;20005;-74
2021/05/20 14:48:07;;;;;;;1.08;0.90;;;;;;;17.27;57.78;94088.56;6207365;23;20350;-72
2021/05/20 14:50:34;;;;;;;2.58;1.20;;;;;;;17.01;57.97;94083.91;6207353;23;20000;-73
2021/05/20 14:53:09;;;;;;;1.25;1.00;;;;;;;16.99;58.19;94095.59;6181610;23;20076;-73
2021/05/20 14:55:50;;;;;;;3.45;1.20;;;;;;;16.93;58.53;94101.75;6206571;23;20016;-79
2021/05/20 15:06:27;;;;;;;2.20;1.20;;;;;;;16.33;60.03;94117.69;6185786;23;20015;-77
2021/05/20 15:08:57;;;;;;;1.63;1.23;;;;;;;16.11;60.75;94120.06;6179566;23;20004;-77
2021/05/20 15:11:36;;;;;;;1.60;1.50;;;;;;;15.89;61.56;94128.66;6207318;23;20008;-77
2021/05/20 15:16:34;;;;;;;7.22;3.38;;;;;;;15.68;62.19;94141.19;6157520;23;20008;-77
2021/05/20 15:18:59;;;;;;;3.17;2.50;;;;;;;15.45;63.36;94148.06;6130932;23;20004;-75
2021/05/20 15:21:25;;;;;;;4.68;3.88;;;;;;;15.38;63.84;94155.22;6153678;23;20008;-76
2021/05/20 15:23:51;;;;;;;11.73;10.52;;;;;;;14.30;67.91;94172.31;6155047;23;20005;-76
2021/05/20 15:26:17;;;;;;;9.35;7.30;;;;;;;13.90;69.83;94166.59;6205555;23;20012;-75
2021/05/20 15:28:42;;;;;;;6.03;5.50;;;;;;;13.72;70.97;94167.28;6207505;23;20005;-75
2021/05/20 15:31:07;;;;;;;40.40;34.05;;;;;;;13.39;73.96;94159.66;6180265;23;20013;-76
2021/05/20 15:33:36;;;;;;;56.65;40.03;;;;;;;13.14;75.18;94166.56;6206625;23;20467;-76
2021/05/20 15:36:02;;;;;;;74.55;37.78;;;;;;;12.89;74.76;94150.81;6206563;23;20020;-76
2021/05/20 15:38:29;;;;;;;64.22;43.92;;;;;;;13.19;74.62;94164.97;6179311;23;20414;-76
2021/05/20 15:40:54;;;;;;;20.83;16.40;;;;;;;13.20;74.31;94161.34;6180326;23;20001;-74
2021/05/20 15:43:20;;;;;;;18.38;10.13;;;;;;;13.07;72.88;94152.75;6179596;23;20015;-75
2021/05/20 15:45:46;;;;;;;10.02;9.10;;;;;;;13.03;73.87;94160.19;6207728;23;20441;-77
2021/05/20 15:50:56;;;;;;;8.45;6.40;;;;;;;13.07;73.71;94161.34;6183450;23;20027;-76
2021/05/20 15:53:21;;;;;;;68.22;10.25;;;;;;;13.05;74.17;94163.38;6205164;23;20028;-73
2021/05/20 15:55:47;;;;;;;5.65;5.15;;;;;;;12.94;74.84;94163.22;6205234;23;20046;-74
2021/05/20 15:58:12;;;;;;;32.67;10.13;;;;;;;13.01;75.04;94167.38;6179407;23;20001;-75
2021/05/20 16:00:38;;;;;;;9.60;8.63;;;;;;;13.29;74.15;94158.53;6198937;23;20008;-75
2021/05/20 16:03:03;;;;;;;2.75;2.55;;;;;;;13.45;72.02;94161.41;6206205;23;20011;-75
2021/05/20 16:05:29;;;;;;;29.33;2.15;;;;;;;13.40;70.11;94157.84;6179349;23;20005;-75
2021/05/20 16:15:33;;;;;;;1.42;1.15;;;;;;;13.48;71.04;94153.22;6182849;23;20100;-75
2021/05/20 16:17:59;;;;;;;1.40;1.30;;;;;;;13.74;70.36;94165.31;6177703;23;20036;-75
2021/05/20 16:20:26;;;;;;;3.03;2.35;;;;;;;13.79;70.13;94160.25;6180127;23;20493;-76
2021/05/20 16:39:10;;;;;;;0.75;0.65;;;;;;;14.46;66.16;94177.00;6204595;23;20000;-76
2021/05/20 16:41:35;;;;;;;2.17;0.90;;;;;;;14.43;67.31;94178.25;6180547;23;20510;-77
2021/05/20 16:44:02;;;;;;;1.10;1.00;;;;;;;14.44;67.36;94179.84;6205288;23;20011;-76
2021/05/20 16:46:27;;;;;;;4.32;3.50;;;;;;;14.48;68.48;94186.19;6206824;23;20004;-75
2021/05/20 16:48:53;;;;;;;3.33;1.77;;;;;;;14.54;67.94;94195.00;6151804;23;20008;-76
2021/05/20 16:51:21;;;;;;;3.90;1.88;;;;;;;14.45;68.16;94183.25;6205771;23;20012;-76
2021/05/20 16:53:47;;;;;;;10.77;6.45;;;;;;;14.45;68.22;94196.28;6178801;23;20091;-76
2021/05/20 16:56:26;;;;;;;5.68;2.80;;;;;;;14.32;69.47;94201.56;6154472;23;20502;-76
2021/05/20 16:58:51;;;;;;;2.72;1.63;;;;;;;14.17;69.55;94200.06;6182700;23;20335;-77
2021/05/20 17:01:17;;;;;;;10.35;6.75;;;;;;;14.10;69.58;94201.91;6205176;23;20024;-81
2021/05/20 17:03:43;;;;;;;5.00;0.73;;;;;;;13.97;70.58;94204.59;6206609;23;20016;-76
2021/05/20 17:06:09;;;;;;;2.50;0.50;;;;;;;13.85;68.83;94219.28;6178923;23;20005;-78
2021/05/20 17:08:34;;;;;;;3.05;0.75;;;;;;;13.67;68.81;94224.38;6178309;23;20028;-76
2021/05/20 17:11:00;;;;;;;1.20;0.65;;;;;;;13.40;69.02;94205.47;6206308;23;20012;-78
2021/05/20 17:13:38;;;;;;;0.80;0.70;;;;;;;13.44;68.71;94239.69;6156403;23;20084;-76
2021/05/20 17:16:04;;;;;;;1.25;0.47;;;;;;;13.46;68.51;94238.47;6183925;23;20075;-78
2021/05/20 17:18:30;;;;;;;1.95;0.90;;;;;;;13.29;68.61;94244.34;6206913;23;20505;-78
2021/05/20 17:20:56;;;;;;;1.95;0.82;;;;;;;13.18;68.56;94236.16;6207755;23;20005;-79
2021/05/20 17:23:25;;;;;;;1.17;0.40;;;;;;;13.08;68.78;94235.78;6155521;23;20004;-74
2021/05/20 17:25:50;;;;;;;1.52;1.02;;;;;;;13.11;68.55;94245.78;6207375;23;20004;-77
2021/05/20 17:28:16;;;;;;;1.67;0.40;;;;;;;13.05;68.34;94250.97;6207847;23;20337;-75
2021/05/20 17:30:42;;;;;;;5.57;0.60;;;;;;;12.98;68.71;94248.38;6181628;23;20143;-76
2021/05/20 17:33:07;;;;;;;1.85;0.40;;;;;;;12.90;68.43;94245.19;6181068;23;20036;-77
2021/05/20 17:35:33;;;;;;;3.08;0.52;;;;;;;12.78;67.99;94242.38;6155174;23;20016;-81
2021/05/20 17:37:58;;;;;;;5.43;0.47;;;;;;;12.72;68.21;94251.00;6157852;23;20708;-80
2021/05/20 17:40:23;;;;;;;0.70;0.60;;;;;;;12.63;67.90;94258.19;6207425;23;20450;-75
2021/05/20 17:42:49;;;;;;;3.55;0.50;;;;;;;12.62;68.16;94255.78;6157501;23;20008;-76
2021/05/20 17:45:14;;;;;;;1.38;0.77;;;;;;;12.53;69.07;94257.78;6180880;23;20008;-75
2021/05/20 17:47:43;;;;;;;2.35;0.75;;;;;;;12.46;69.35;94254.38;6181517;23;20009;-76
2021/05/20 17:50:10;;;;;;;3.30;0.65;;;;;;;12.37;69.98;94262.56;6208239;23;20020;-78
2021/05/20 17:52:35;;;;;;;1.50;1.10;;;;;;;12.44;70.84;94255.59;6180856;23;20139;-76
2021/05/20 17:55:01;;;;;;;2.97;1.50;;;;;;;12.52;72.17;94265.81;6156094;23;20004;-76
2021/05/20 17:57:26;;;;;;;1.73;1.40;;;;;;;12.35;71.64;94262.78;6152189;23;20011;-75
2021/05/20 17:59:53;;;;;;;2.20;1.90;;;;;;;12.36;72.15;94268.78;6154840;23;20004;-76
2021/05/20 18:02:19;;;;;;;2.13;1.50;;;;;;;12.23;72.42;94273.97;6179130;23;20015;-80
2021/05/20 18:04:44;;;;;;;4.07;2.90;;;;;;;12.18;72.87;94278.94;6204813;23;20385;-74
2021/05/20 18:07:11;;;;;;;4.22;2.00;;;;;;;12.22;72.28;94280.94;6206966;23;20001;-74
2021/05/20 18:09:40;;;;;;;4.18;2.72;;;;;;;12.17;72.79;94283.31;6180610;23;20319;-75
2021/05/20 18:12:29;;;;;;;7.55;3.05;;;;;;;12.00;73.07;94288.09;6157746;23;20036;-74
2021/05/20 18:15:08;;;;;;;3.20;2.28;;;;;;;11.86;73.23;94280.44;6162746;23;20012;-75
2021/05/20 18:17:47;;;;;;;2.60;2.40;;;;;;;11.89;74.60;94299.03;6181869;23;20075;-75
2021/05/20 18:22:38;;;;;;;1.58;0.80;;;;;;;11.74;74.79;94300.16;6178191;23;20004;-74
2021/05/20 18:25:04;;;;;;;1.42;0.90;;;;;;;11.68;74.66;94299.13;6170342;23;20001;-77
2021/05/20 18:27:30;;;;;;;0.93;0.93;;;;;;;11.51;75.01;94308.22;6179348;23;20063;-76
2021/05/20 18:29:58;;;;;;;1.10;1.00;;;;;;;11.58;75.42;94309.84;6181567;23;20010;-75